Time;durP1;ratioP1;P1;durP2;ratioP2;P2;SDS_P1;SDS_P2;PMS_P1;PMS_P2;Temp;Humidity;BMP_temperature;BMP_pressure;BME280_temperature;BME280_humidity;BME280_pressure;Samples;Min_cycle;Max_cycle;Signal;HPM_P1;HPM_P2
2023/03/27 00:00:45;;;;;;;13.52;1.98;;;;;;;5.84;81.47;100290.78;8342631;28;20036;-54
2023/03/27 00:04:46;;;;;;;17.45;2.95;;;;;;;5.82;81.57;100292.72;8311099;28;20488;-54
2023/03/27 00:08:49;;;;;;;12.15;2.33;;;;;;;5.80;81.68;100300.84;8300468;28;20399;-54
2023/03/27 00:12:50;;;;;;;17.58;2.00;;;;;;;5.71;82.47;100304.22;8360005;28;20040;-54
2023/03/27 00:16:51;;;;;;;21.67;2.30;;;;;;;5.67;82.98;100320.66;8319020;28;20124;-54
2023/03/27 00:20:52;;;;;;;13.75;1.83;;;;;;;5.54;83.15;100314.50;8308221;28;20048;-54
2023/03/27 00:24:52;;;;;;;18.00;2.40;;;;;;;5.62;82.85;100320.16;8322598;28;20037;-53
2023/03/27 00:28:53;;;;;;;18.45;2.80;;;;;;;5.56;83.50;100328.66;8327799;28;20034;-55
2023/03/27 00:32:55;;;;;;;15.32;1.80;;;;;;;5.53;84.98;100339.63;8327428;28;20466;-54
2023/03/27 00:36:56;;;;;;;10.43;1.80;;;;;;;5.35;86.76;100340.97;8326215;28;20041;-54
2023/03/27 00:40:56;;;;;;;17.13;2.65;;;;;;;5.43;86.68;100343.97;8332782;28;20048;-54
2023/03/27 00:44:57;;;;;;;13.90;1.95;;;;;;;5.40;86.58;100347.69;8326437;28;20447;-55
2023/03/27 00:49:01;;;;;;;14.00;2.80;;;;;;;5.30;86.95;100372.59;8326612;28;20048;-54
2023/03/27 00:53:08;;;;;;;12.80;1.90;;;;;;;5.36;87.43;100374.84;8317602;28;20042;-53
2023/03/27 00:57:15;;;;;;;18.50;2.15;;;;;;;5.26;87.19;100371.13;8305737;28;20044;-53
2023/03/27 01:01:20;;;;;;;15.15;2.15;;;;;;;5.22;87.29;100366.97;8296876;28;20034;-55
2023/03/27 01:05:21;;;;;;;13.80;2.83;;;;;;;5.21;87.42;100370.56;8310336;28;20049;-54
2023/03/27 01:09:25;;;;;;;12.95;2.15;;;;;;;5.19;88.22;100383.25;8325692;28;20041;-54
2023/03/27 01:13:46;;;;;;;18.58;2.45;;;;;;;5.08;89.65;100385.81;8325158;28;20045;-54
2023/03/27 01:18:09;;;;;;;22.50;2.78;;;;;;;5.12;88.11;100390.03;8318377;28;20042;-54
2023/03/27 01:22:44;;;;;;;8.45;2.05;;;;;;;5.15;88.45;100397.81;8323242;28;20047;-53
2023/03/27 01:27:09;;;;;;;19.00;2.05;;;;;;;5.16;87.92;100405.75;8295854;28;20092;-54
2023/03/27 01:31:24;;;;;;;14.15;2.40;;;;;;;5.14;87.70;100417.53;8292477;28;20042;-53
2023/03/27 01:40:35;;;;;;;13.98;2.42;;;;;;;5.12;87.87;100424.84;8349909;27;20757;-53
2023/03/27 01:45:15;;;;;;;10.48;2.40;;;;;;;5.15;87.34;100424.59;8336982;28;20048;-52
2023/03/27 01:49:23;;;;;;;10.73;2.15;;;;;;;4.98;88.04;100435.66;8319297;28;20476;-53
2023/03/27 01:53:31;;;;;;;17.02;1.95;;;;;;;4.92;87.78;100425.38;8343685;28;20048;-52
2023/03/27 01:57:40;;;;;;;13.50;2.20;;;;;;;5.07;86.79;100443.06;8352856;28;20600;-52
2023/03/27 02:01:47;;;;;;;19.60;2.13;;;;;;;5.11;86.15;100447.22;8353365;28;20034;-53
2023/03/27 02:05:55;;;;;;;16.27;2.13;;;;;;;5.05;86.29;100453.03;8335230;28;20050;-53
2023/03/27 02:10:04;;;;;;;10.23;2.05;;;;;;;4.97;86.38;100458.06;8326008;28;20043;-54
2023/03/27 02:14:12;;;;;;;7.65;2.05;;;;;;;4.97;86.66;100468.78;8339937;28;20037;-54
2023/03/27 02:18:18;;;;;;;16.08;2.22;;;;;;;4.94;86.60;100479.72;8333624;28;20139;-58
2023/03/27 02:22:19;;;;;;;14.55;1.70;;;;;;;4.89;86.88;100485.38;8354822;28;20045;-57
2023/03/27 02:26:24;;;;;;;20.83;2.58;;;;;;;4.80;86.93;100482.47;8350695;28;20048;-58
2023/03/27 02:30:36;;;;;;;23.17;2.40;;;;;;;4.79;87.58;100495.00;8351483;28;20041;-58
2023/03/27 02:39:21;;;;;;;9.82;1.55;;;;;;;4.66;87.81;100507.50;8404156;27;20217;-57
2023/03/27 02:43:35;;;;;;;11.18;2.42;;;;;;;4.67;88.10;100514.56;8402448;27;20047;-57
2023/03/27 02:47:42;;;;;;;13.07;2.30;;;;;;;4.76;88.06;100518.47;8402051;28;20035;-57
2023/03/27 02:51:51;;;;;;;16.38;2.55;;;;;;;4.66;87.81;100528.09;8402403;27;20037;-56
2023/03/27 02:55:56;;;;;;;8.85;1.60;;;;;;;4.57;88.99;100529.53;8401694;27;20532;-57
2023/03/27 03:00:11;;;;;;;16.80;2.67;;;;;;;4.52;89.23;100528.16;8401626;27;20469;-52
2023/03/27 03:08:29;;;;;;;13.23;1.92;;;;;;;4.48;88.63;100551.56;8352221;27;20396;-53
2023/03/27 03:12:32;;;;;;;12.55;2.22;;;;;;;4.41;89.28;100549.41;8351531;28;20029;-54
2023/03/27 03:16:33;;;;;;;11.30;2.95;;;;;;;4.36;89.41;100556.88;8352284;28;20072;-51
2023/03/27 03:20:36;;;;;;;14.05;1.98;;;;;;;4.31;89.78;100559.00;8352095;28;20507;-54
2023/03/27 03:24:40;;;;;;;15.40;1.95;;;;;;;4.30;90.08;100565.31;8336794;28;20049;-52
2023/03/27 03:28:42;;;;;;;18.42;2.10;;;;;;;4.21;89.45;100580.13;8339586;28;20049;-54
2023/03/27 03:32:43;;;;;;;6.45;1.83;;;;;;;3.88;91.35;100593.84;8352222;28;20081;-53
2023/03/27 03:36:47;;;;;;;15.48;1.80;;;;;;;3.89;92.32;100595.59;8351264;28;20041;-57
2023/03/27 03:40:52;;;;;;;14.75;2.10;;;;;;;3.85;93.36;100594.03;8351168;28;20538;-58
2023/03/27 03:44:52;;;;;;;14.05;2.15;;;;;;;3.85;93.51;100603.88;8351377;28;20037;-58
2023/03/27 03:48:55;;;;;;;13.30;2.03;;;;;;;3.67;93.23;100608.56;8349484;28;20045;-58
2023/03/27 03:52:55;;;;;;;13.85;2.38;;;;;;;3.60;93.44;100609.88;8350102;28;20061;-58
2023/03/27 03:56:56;;;;;;;8.73;2.03;;;;;;;3.60;93.09;100620.59;8351326;28;20044;-58
2023/03/27 04:00:56;;;;;;;12.27;2.33;;;;;;;3.52;93.59;100632.69;8350813;28;20033;-58
2023/03/27 04:05:08;;;;;;;15.27;2.25;;;;;;;3.50;94.45;100632.78;8350933;28;20045;-59
2023/03/27 04:09:08;;;;;;;10.88;2.65;;;;;;;3.52;94.71;100628.22;8341539;28;20042;-58
2023/03/27 04:13:27;;;;;;;10.80;2.67;;;;;;;3.56;95.44;100643.13;8324703;28;20515;-59
2023/03/27 04:17:37;;;;;;;13.20;3.25;;;;;;;3.64;94.83;100651.53;8341533;28;20411;-59
2023/03/27 04:21:42;;;;;;;12.10;3.20;;;;;;;3.58;95.14;100649.25;8327804;28;20068;-59
2023/03/27 04:25:45;;;;;;;15.50;2.60;;;;;;;3.60;95.47;100668.69;8337398;28;20046;-55
2023/03/27 04:29:53;;;;;;;12.50;1.90;;;;;;;3.52;95.41;100667.44;8328702;28;20175;-56
2023/03/27 04:34:13;;;;;;;19.15;2.25;;;;;;;3.51;96.06;100679.09;8328477;28;20040;-57
2023/03/27 04:38:35;;;;;;;12.88;1.98;;;;;;;3.56;95.57;100677.84;8358316;28;20044;-57
2023/03/27 04:42:41;;;;;;;10.18;2.75;;;;;;;3.56;95.75;100688.56;8313017;28;20502;-57
2023/03/27 04:46:43;;;;;;;13.35;2.88;;;;;;;3.49;95.93;100697.91;8314501;28;20042;-57
2023/03/27 04:50:48;;;;;;;21.00;3.03;;;;;;;3.63;96.68;100695.22;8296643;28;20046;-56
2023/03/27 04:54:57;;;;;;;17.33;3.63;;;;;;;3.78;97.32;100704.13;8314527;28;20033;-58
2023/03/27 04:59:02;;;;;;;17.05;2.88;;;;;;;3.93;97.17;100698.72;8286339;28;20037;-53
2023/03/27 05:03:03;;;;;;;21.13;3.80;;;;;;;4.11;97.54;100701.22;8280509;28;20459;-58
2023/03/27 05:07:14;;;;;;;10.70;2.83;;;;;;;4.31;96.79;100709.72;8324460;28;20037;-58
2023/03/27 05:11:15;;;;;;;19.10;3.75;;;;;;;4.35;96.54;100708.56;8319311;28;20049;-58
2023/03/27 05:15:19;;;;;;;16.60;3.05;;;;;;;4.37;96.67;100709.31;8323024;28;20487;-60
2023/03/27 05:19:20;;;;;;;9.98;2.83;;;;;;;4.44;96.85;100721.34;8302695;28;20041;-59
2023/03/27 05:23:30;;;;;;;14.27;2.72;;;;;;;4.44;96.66;100729.38;8316836;28;20041;-58
2023/03/27 05:27:31;;;;;;;13.77;2.55;;;;;;;4.58;96.06;100729.38;8318195;28;20563;-58
2023/03/27 05:31:32;;;;;;;12.93;2.97;;;;;;;4.75;96.07;100741.66;8332836;28;20041;-58
2023/03/27 05:35:52;;;;;;;12.27;2.33;;;;;;;4.82;95.33;100746.53;8289398;28;20041;-58
2023/03/27 05:39:56;;;;;;;10.05;2.45;;;;;;;4.83;96.15;100760.78;8311481;28;20052;-57
2023/03/27 05:43:56;;;;;;;21.75;3.00;;;;;;;5.03;95.74;100758.53;8334512;28;20509;-53
2023/03/27 05:48:01;;;;;;;17.13;3.00;;;;;;;4.92;95.82;100766.44;8319734;28;20060;-52
2023/03/27 05:52:02;;;;;;;11.07;2.40;;;;;;;4.94;96.40;100775.19;8314904;28;20497;-53
2023/03/27 05:56:05;;;;;;;14.55;2.33;;;;;;;4.99;96.17;100780.25;8320320;28;20132;-53
2023/03/27 06:00:22;;;;;;;18.95;2.95;;;;;;;5.01;96.30;100783.72;8288758;28;20070;-60
2023/03/27 06:04:23;;;;;;;15.40;2.40;;;;;;;5.08;95.57;100791.25;8291171;28;20516;-60
2023/03/27 06:08:31;;;;;;;14.00;3.53;;;;;;;5.23;95.23;100792.06;8302770;28;20042;-60
2023/03/27 06:12:35;;;;;;;11.63;2.95;;;;;;;5.30;94.47;100806.78;8323597;28;20125;-58
2023/03/27 06:16:45;;;;;;;11.35;2.53;;;;;;;5.27;95.66;100809.66;8344158;28;20048;-58
2023/03/27 06:21:06;;;;;;;7.90;2.97;;;;;;;5.18;97.36;100815.63;8349508;28;20598;-57
2023/03/27 06:25:07;;;;;;;12.20;3.35;;;;;;;5.20;97.91;100819.06;8321800;28;20037;-53
2023/03/27 06:29:08;;;;;;;7.93;2.38;;;;;;;5.27;97.69;100820.38;8322182;28;20124;-54
2023/03/27 06:33:09;;;;;;;9.07;2.33;;;;;;;5.30;97.57;100830.91;8322190;28;20037;-53
2023/03/27 06:37:10;;;;;;;18.83;3.08;;;;;;;5.28;98.13;100838.22;8320229;28;20108;-58
2023/03/27 06:41:14;;;;;;;11.55;3.53;;;;;;;5.30;97.27;100847.00;8313687;28;20043;-57
2023/03/27 06:45:37;;;;;;;9.85;2.67;;;;;;;5.40;97.73;100854.34;8321234;28;20088;-57
2023/03/27 06:49:58;;;;;;;9.52;3.00;;;;;;;5.52;96.21;100852.69;8302209;28;20045;-57
2023/03/27 06:53:58;;;;;;;18.48;3.30;;;;;;;5.85;96.41;100855.84;8274684;28;20139;-51
2023/03/27 06:58:01;;;;;;;12.75;3.42;;;;;;;6.13;95.48;100855.69;8271014;28;20042;-51
2023/03/27 07:02:02;;;;;;;11.38;3.83;;;;;;;6.34;93.88;100859.59;8289223;28;20038;-53
2023/03/27 07:06:24;;;;;;;8.18;3.13;;;;;;;6.54;91.40;100867.16;8321108;28;20033;-52
2023/03/27 07:10:28;;;;;;;11.70;3.45;;;;;;;6.50;90.92;100871.03;8317515;28;20053;-59
2023/03/27 07:14:29;;;;;;;12.00;3.38;;;;;;;6.56;91.17;100881.31;8319821;28;20491;-60
2023/03/27 07:18:29;;;;;;;12.13;3.83;;;;;;;6.45;90.52;100883.91;8319567;28;20033;-60
2023/03/27 07:22:30;;;;;;;23.60;4.05;;;;;;;6.79;89.56;100888.63;8319284;28;20116;-59
2023/03/27 07:26:37;;;;;;;9.60;3.35;;;;;;;6.87;87.90;100899.72;8315024;28;20029;-52
2023/03/27 07:30:47;;;;;;;22.38;4.13;;;;;;;7.10;88.45;100901.63;8320231;28;20061;-52
2023/03/27 07:34:55;;;;;;;10.70;3.00;;;;;;;7.28;86.81;100908.38;8320853;28;20037;-51
2023/03/27 07:39:15;;;;;;;11.93;3.78;;;;;;;7.23;85.75;100915.91;8319482;28;20095;-52
2023/03/27 07:43:17;;;;;;;12.57;3.75;;;;;;;7.32;85.71;100919.78;8318760;28;20099;-53
2023/03/27 07:47:18;;;;;;;7.05;2.20;;;;;;;7.41;82.62;100922.66;8320579;28;20111;-52
2023/03/27 07:51:19;;;;;;;9.38;3.28;;;;;;;8.09;84.88;100926.50;8321359;28;20041;-52
2023/03/27 07:55:21;;;;;;;12.52;3.78;;;;;;;7.84;81.96;100934.69;8326518;28;20407;-52
2023/03/27 07:59:33;;;;;;;8.53;2.40;;;;;;;7.54;84.67;100939.63;8326499;28;20561;-51
2023/03/27 08:03:43;;;;;;;9.27;2.70;;;;;;;7.50;82.93;100946.19;8327037;28;20099;-56
2023/03/27 08:07:45;;;;;;;7.93;2.50;;;;;;;7.56;83.90;100943.06;8325542;28;20503;-53
2023/03/27 08:11:54;;;;;;;8.77;2.20;;;;;;;7.91;84.84;100946.75;8324238;28;20454;-52
2023/03/27 08:16:14;;;;;;;8.93;2.30;;;;;;;8.14;83.97;100941.47;8326217;28;20041;-52
2023/03/27 08:20:16;;;;;;;9.65;2.60;;;;;;;8.28;81.98;100944.00;8326029;28;20124;-51
2023/03/27 08:24:21;;;;;;;13.23;2.33;;;;;;;8.29;81.54;100951.13;8326099;28;20116;-52
2023/03/27 08:28:41;;;;;;;11.25;3.20;;;;;;;8.03;82.52;100961.97;8325499;28;20049;-52
2023/03/27 08:32:42;;;;;;;9.55;2.85;;;;;;;8.66;82.34;100960.84;8325902;28;20057;-53
2023/03/27 08:36:45;;;;;;;13.23;2.38;;;;;;;8.80;80.16;100958.78;8325337;28;20048;-51
2023/03/27 08:40:49;;;;;;;9.25;2.00;;;;;;;8.67;76.84;100968.81;8325077;28;20034;-53
2023/03/27 08:45:08;;;;;;;5.80;2.38;;;;;;;8.47;77.38;100965.88;8325411;28;20569;-53
2023/03/27 08:49:18;;;;;;;8.60;1.88;;;;;;;8.79;76.54;100967.00;8313365;28;20500;-51
2023/03/27 08:54:03;;;;;;;4.43;1.57;;;;;;;8.46;76.63;100980.34;8337665;28;20072;-53
2023/03/27 08:58:16;;;;;;;8.73;2.05;;;;;;;8.02;76.04;100997.94;8329009;28;20374;-52
2023/03/27 09:02:45;;;;;;;13.85;2.03;;;;;;;7.97;77.17;100994.72;8340049;28;20044;-53
2023/03/27 09:07:27;;;;;;;10.88;1.63;;;;;;;7.87;75.92;101009.84;8324142;28;20045;-53
2023/03/27 09:12:01;;;;;;;6.97;1.20;;;;;;;7.73;74.49;101007.31;8324142;28;20053;-53
2023/03/27 09:16:18;;;;;;;6.88;2.08;;;;;;;7.56;75.15;101020.22;8324923;28;20072;-52
2023/03/27 09:20:26;;;;;;;6.25;1.83;;;;;;;7.74;78.81;101019.78;8324326;28;20094;-52
2023/03/27 09:24:33;;;;;;;6.15;2.05;;;;;;;7.83;77.96;101021.81;8291757;28;20030;-53
2023/03/27 09:29:00;;;;;;;4.65;1.83;;;;;;;7.70;75.61;101029.06;8312825;28;20440;-53
2023/03/27 09:33:05;;;;;;;8.55;1.92;;;;;;;7.83;77.38;101029.88;8323860;28;20041;-53
2023/03/27 09:37:13;;;;;;;14.52;1.60;;;;;;;10.99;68.74;101020.78;8323048;28;20041;-53
2023/03/27 09:41:21;;;;;;;8.45;1.77;;;;;;;11.20;62.05;101024.31;8314483;28;20042;-51
2023/03/27 09:45:24;;;;;;;7.25;1.45;;;;;;;12.35;58.33;101024.88;8324078;28;20040;-53
2023/03/27 09:49:33;;;;;;;5.43;1.73;;;;;;;11.19;58.58;101022.59;8323179;28;20096;-53
2023/03/27 09:53:34;;;;;;;4.68;1.52;;;;;;;9.50;62.26;101037.75;8323550;28;20041;-53
2023/03/27 09:58:06;;;;;;;8.52;1.60;;;;;;;8.34;63.67;101045.91;8316359;28;20533;-52
2023/03/27 10:02:17;;;;;;;4.28;1.50;;;;;;;10.75;60.31;101046.31;8323363;28;20033;-53
2023/03/27 10:06:31;;;;;;;6.00;1.13;;;;;;;12.76;54.45;101046.34;8293593;28;20103;-53
2023/03/27 10:10:44;;;;;;;11.05;1.33;;;;;;;10.23;59.38;101057.03;8289541;28;20501;-53
2023/03/27 10:14:56;;;;;;;10.57;1.80;;;;;;;9.01;65.82;101047.94;8322434;28;20051;-52
2023/03/27 10:18:59;;;;;;;7.50;1.80;;;;;;;9.37;64.50;101045.94;8322037;28;20037;-53
2023/03/27 10:23:21;;;;;;;10.27;1.67;;;;;;;11.73;57.94;101049.47;8322532;28;20270;-52
2023/03/27 10:27:28;;;;;;;9.50;1.40;;;;;;;11.62;59.60;101047.69;8322055;28;20052;-52
2023/03/27 10:31:52;;;;;;;11.35;1.70;;;;;;;12.34;60.69;101052.97;8322075;28;20056;-51
2023/03/27 10:36:13;;;;;;;6.35;1.88;;;;;;;15.22;53.61;101043.63;8322399;28;20501;-53
2023/03/27 10:40:17;;;;;;;6.93;1.30;;;;;;;15.40;50.93;101046.38;8319714;28;20403;-51
2023/03/27 10:44:24;;;;;;;8.23;1.48;;;;;;;11.83;55.58;101055.78;8322519;28;20034;-54
2023/03/27 10:49:02;;;;;;;5.07;1.08;;;;;;;10.87;59.26;101051.56;8321663;28;20519;-57
2023/03/27 10:53:28;;;;;;;6.25;1.10;;;;;;;13.04;54.74;101046.38;8321261;28;20056;-58
2023/03/27 10:57:36;;;;;;;8.50;1.48;;;;;;;14.01;53.05;101054.16;8321229;28;20048;-58
2023/03/27 11:01:41;;;;;;;9.00;1.67;;;;;;;12.88;53.96;101054.22;8321330;28;20459;-58
2023/03/27 11:05:46;;;;;;;6.90;1.27;;;;;;;12.41;54.65;101055.00;8319970;28;20045;-57
2023/03/27 11:10:11;;;;;;;7.70;1.75;;;;;;;10.90;60.40;101064.84;8320453;28;20045;-58
2023/03/27 11:14:19;;;;;;;5.15;1.35;;;;;;;9.21;64.29;101067.00;8321599;28;20571;-58
2023/03/27 11:18:33;;;;;;;7.43;2.03;;;;;;;11.42;61.66;101072.94;8320660;28;20033;-58
2023/03/27 11:22:43;;;;;;;11.95;1.63;;;;;;;14.87;57.48;101062.72;8321368;28;20038;-58
2023/03/27 11:26:56;;;;;;;6.75;1.33;;;;;;;16.22;51.72;101063.91;8315230;28;20099;-57
2023/03/27 11:31:09;;;;;;;6.25;1.48;;;;;;;15.86;52.96;101075.16;8328434;28;20133;-58
2023/03/27 11:35:15;;;;;;;7.10;1.25;;;;;;;17.06;51.29;101061.97;8327447;28;20030;-58
2023/03/27 11:39:59;;;;;;;3.75;1.00;;;;;;;14.61;52.19;101088.94;8326623;28;20030;-58
2023/03/27 11:44:00;;;;;;;3.35;0.77;;;;;;;12.10;57.76;101085.00;8326751;28;20045;-58
2023/03/27 11:53:11;;;;;;;5.82;1.00;;;;;;;15.47;52.04;101075.53;8345580;27;20870;-57
2023/03/27 11:57:50;;;;;;;4.40;0.70;;;;;;;17.02;50.13;101077.00;8338285;28;20041;-57
2023/03/27 12:02:10;;;;;;;3.10;0.70;;;;;;;17.71;48.22;101082.84;8315412;28;20038;-57
2023/03/27 12:06:19;;;;;;;5.40;0.95;;;;;;;18.03;46.93;101074.63;8315572;28;20175;-57
2023/03/27 12:10:30;;;;;;;3.55;0.65;;;;;;;14.98;46.74;101076.06;8315708;28;20034;-57
2023/03/27 12:15:07;;;;;;;3.05;0.60;;;;;;;14.32;52.41;101085.56;8316902;28;20411;-57
2023/03/27 12:19:26;;;;;;;8.95;0.80;;;;;;;11.55;56.13;101106.06;8311757;28;20034;-57
2023/03/27 12:24:19;;;;;;;4.18;0.50;;;;;;;9.89;62.81;101123.69;8342918;28;20033;-57
2023/03/27 12:29:00;;;;;;;3.65;0.70;;;;;;;9.79;66.34;101130.81;8327812;28;20068;-52
2023/03/27 12:33:52;;;;;;;5.43;0.82;;;;;;;9.34;69.39;101137.91;8316113;28;20551;-57
2023/03/27 12:38:00;;;;;;;11.50;1.45;;;;;;;8.93;70.57;101132.13;8315835;28;20091;-57
2023/03/27 12:42:12;;;;;;;3.95;1.13;;;;;;;8.86;72.66;101146.16;8315772;28;20045;-51
2023/03/27 12:46:30;;;;;;;3.45;1.00;;;;;;;10.00;68.39;101146.16;8315542;28;20130;-51
2023/03/27 12:50:44;;;;;;;5.30;0.95;;;;;;;10.32;66.59;101138.22;8305959;28;20033;-52
2023/03/27 12:55:25;;;;;;;6.90;1.08;;;;;;;9.63;66.81;101139.22;8307083;28;20042;-52
2023/03/27 12:59:57;;;;;;;3.85;1.17;;;;;;;9.33;69.52;101147.00;8284858;28;20444;-52
2023/03/27 13:04:19;;;;;;;2.63;1.03;;;;;;;9.15;69.63;101145.69;8262506;28;20053;-51
2023/03/27 13:08:53;;;;;;;6.55;1.25;;;;;;;9.13;71.22;101141.41;8269895;28;20704;-57
2023/03/27 13:13:31;;;;;;;4.80;1.50;;;;;;;9.24;71.79;101136.91;8270639;28;21300;-57
2023/03/27 13:22:23;;;;;;;5.47;1.00;;;;;;;10.30;68.62;101133.91;8402790;27;20472;-58
2023/03/27 13:26:51;;;;;;;3.90;1.65;;;;;;;9.64;67.65;101148.22;8396103;27;20048;-59
2023/03/27 13:30:55;;;;;;;3.72;1.30;;;;;;;8.87;72.39;101164.06;8381605;27;20531;-59
2023/03/27 13:44:12;;;;;;;6.00;1.75;;;;;;;6.26;95.70;101189.50;8339713;27;20555;-59
2023/03/27 13:48:47;;;;;;;3.95;1.95;;;;;;;6.61;96.66;101188.09;8329880;28;20030;-57
2023/03/27 13:53:27;;;;;;;4.40;1.75;;;;;;;7.52;98.25;101181.00;8328174;28;20060;-57
2023/03/27 13:58:17;;;;;;;6.38;2.08;;;;;;;7.88;90.35;101173.09;8345680;28;20039;-57
2023/03/27 14:02:40;;;;;;;5.85;0.95;;;;;;;8.51;87.67;101161.41;8331692;28;20484;-57
2023/03/27 14:07:08;;;;;;;4.85;1.05;;;;;;;8.76;78.07;101172.09;8315231;28;20426;-59
2023/03/27 14:11:50;;;;;;;4.60;0.55;;;;;;;8.90;74.71;101167.41;8332375;28;20099;-59
2023/03/27 14:20:57;;;;;;;2.28;0.57;;;;;;;9.08;68.66;101168.72;8346197;27;20391;-54
2023/03/27 14:25:03;;;;;;;3.80;0.70;;;;;;;8.98;65.08;101164.13;8298661;28;20064;-53
2023/03/27 14:29:20;;;;;;;3.50;0.70;;;;;;;9.32;68.02;101166.00;8315153;28;20033;-54
2023/03/27 14:33:24;;;;;;;5.25;0.63;;;;;;;9.39;66.11;101161.84;8316316;28;20479;-58
2023/03/27 14:37:34;;;;;;;2.78;0.70;;;;;;;9.54;67.46;101171.47;8299210;28;20042;-60
2023/03/27 14:41:55;;;;;;;1.65;0.70;;;;;;;8.76;66.65;101193.66;8284350;28;20487;-59
2023/03/27 14:46:02;;;;;;;0.75;0.57;;;;;;;7.55;74.31;101229.25;8297589;28;20523;-61
2023/03/27 14:50:05;;;;;;;2.72;0.73;;;;;;;7.38;82.42;101212.53;8300502;28;20400;-62
2023/03/27 14:54:25;;;;;;;2.90;0.93;;;;;;;7.18;80.08;101208.47;8300409;28;20519;-60
2023/03/27 14:58:27;;;;;;;3.47;0.80;;;;;;;7.14;81.34;101217.69;8299805;28;20444;-60
2023/03/27 15:02:33;;;;;;;3.20;0.68;;;;;;;7.02;81.11;101202.38;8298178;28;20045;-61
2023/03/27 15:06:38;;;;;;;6.72;1.63;;;;;;;7.08;81.81;101210.03;8287783;28;20058;-61
2023/03/27 15:10:50;;;;;;;1.83;0.90;;;;;;;7.28;84.77;101217.66;8294973;28;20037;-61
2023/03/27 15:15:38;;;;;;;4.22;0.90;;;;;;;7.34;81.01;101230.69;8315438;28;20522;-61
2023/03/27 15:19:44;;;;;;;3.70;1.08;;;;;;;7.51;80.39;101226.84;8309653;28;20038;-61
2023/03/27 15:24:00;;;;;;;3.45;1.00;;;;;;;7.69;81.87;101215.69;8316374;28;20468;-61
2023/03/27 15:28:02;;;;;;;;;;;;;;;7.97;82.29;101220.88;8304994;28;20062;-61
2023/03/27 15:32:07;;;;;;;3.08;1.00;;;;;;;8.46;82.23;101215.63;8275226;28;19918;-61
2023/03/27 15:36:25;;;;;;;21.35;1.88;;;;;;;9.36;81.04;101203.44;8286358;28;20380;-59
2023/03/27 15:40:32;;;;;;;5.80;1.20;;;;;;;9.03;75.44;101213.19;8327506;28;20037;-60
2023/03/27 15:44:33;;;;;;;3.03;0.90;;;;;;;8.80;75.79;101251.78;8324466;28;20042;-60
2023/03/27 15:48:39;;;;;;;5.18;1.10;;;;;;;6.88;83.92;101291.13;8307403;28;20049;-60
2023/03/27 15:52:46;;;;;;;6.95;1.73;;;;;;;5.67;90.90;101270.06;8296880;28;20480;-60
2023/03/27 15:56:47;;;;;;;7.28;1.58;;;;;;;5.81;95.83;101264.75;8274463;28;20045;-60
2023/03/27 16:00:51;;;;;;;5.97;1.48;;;;;;;6.15;95.21;101266.28;8263075;28;20060;-59
2023/03/27 16:04:55;;;;;;;5.85;1.50;;;;;;;6.30;95.47;101262.66;8273791;28;20034;-59
2023/03/27 16:08:56;;;;;;;7.88;2.00;;;;;;;6.33;97.17;101266.03;8288991;28;20026;-59
2023/03/27 16:13:01;;;;;;;3.97;1.20;;;;;;;6.50;93.97;101263.16;8284753;28;20117;-59
2023/03/27 16:17:28;;;;;;;5.22;1.58;;;;;;;7.01;87.02;101264.28;8278531;28;20041;-60
2023/03/27 16:21:32;;;;;;;5.63;1.30;;;;;;;7.27;85.64;101264.34;8271014;28;20055;-61
2023/03/27 16:25:33;;;;;;;;;;;;;;;7.43;84.33;101267.72;8275551;28;20045;-61
2023/03/27 16:29:33;;;;;;;6.97;1.42;;;;;;;7.56;82.74;101270.44;8278651;28;20367;-61
2023/03/27 16:33:34;;;;;;;10.18;1.88;;;;;;;7.58;80.96;101269.38;8277411;28;20042;-59
2023/03/27 16:37:35;;;;;;;4.60;1.58;;;;;;;7.61;78.10;101277.25;8261860;28;20041;-59
2023/03/27 16:41:35;;;;;;;7.90;1.35;;;;;;;7.64;75.98;101271.66;8265587;28;20069;-59
2023/03/27 16:45:37;;;;;;;8.43;1.40;;;;;;;7.78;73.37;101276.97;8273471;28;20322;-59
2023/03/27 16:49:38;;;;;;;9.25;1.63;;;;;;;7.88;73.69;101275.38;8295788;28;20038;-58
2023/03/27 16:53:38;;;;;;;5.63;0.98;;;;;;;7.90;70.52;101284.19;8298128;28;20034;-59
2023/03/27 16:57:40;;;;;;;11.40;1.45;;;;;;;7.86;67.94;101288.06;8275773;28;20129;-59
2023/03/27 17:01:41;;;;;;;7.00;1.10;;;;;;;7.82;68.91;101294.66;8270383;28;20055;-60
2023/03/27 17:05:42;;;;;;;7.82;1.10;;;;;;;7.68;69.36;101294.69;8289616;28;20359;-60
2023/03/27 17:09:43;;;;;;;3.25;1.08;;;;;;;7.61;70.68;101311.34;8278451;28;20034;-60
2023/03/27 17:13:43;;;;;;;6.03;1.60;;;;;;;7.53;71.64;101319.94;8269832;28;20040;-60
2023/03/27 17:17:44;;;;;;;8.60;1.63;;;;;;;7.40;73.29;101324.41;8291459;28;20053;-61
2023/03/27 17:21:45;;;;;;;9.15;1.30;;;;;;;7.41;73.11;101334.19;8284162;28;20450;-55
2023/03/27 17:25:46;;;;;;;8.32;1.45;;;;;;;7.41;73.33;101336.88;8272884;28;20038;-54
2023/03/27 17:29:46;;;;;;;6.88;1.77;;;;;;;7.34;73.61;101340.97;8299258;28;20109;-55
2023/03/27 17:33:47;;;;;;;8.98;1.58;;;;;;;7.31;73.62;101341.16;8319011;28;20060;-55
2023/03/27 17:37:48;;;;;;;8.13;1.40;;;;;;;7.23;73.64;101351.53;8313310;28;20404;-55
2023/03/27 17:41:49;;;;;;;6.55;1.20;;;;;;;7.04;72.93;101356.38;8279713;28;20125;-55
2023/03/27 17:45:51;;;;;;;7.55;1.20;;;;;;;7.06;70.72;101354.47;8268679;28;20043;-55
2023/03/27 17:49:53;;;;;;;8.23;1.58;;;;;;;6.96;70.95;101369.47;8269313;28;20072;-54
2023/03/27 17:53:53;;;;;;;4.38;1.00;;;;;;;6.89;72.06;101362.72;8275063;28;20038;-55
2023/03/27 17:57:54;;;;;;;6.00;1.58;;;;;;;6.78;72.49;101362.53;8267668;28;20559;-54
2023/03/27 18:01:56;;;;;;;12.82;1.73;;;;;;;6.84;71.53;101375.59;8264369;28;20562;-54
2023/03/27 18:06:02;;;;;;;5.13;1.17;;;;;;;6.67;73.28;101377.59;8282852;28;20064;-54
2023/03/27 18:10:04;;;;;;;6.53;1.50;;;;;;;6.63;73.38;101386.81;8265377;28;20034;-59
2023/03/27 18:14:05;;;;;;;10.38;1.60;;;;;;;6.57;74.07;101388.06;8267055;28;20125;-59
2023/03/27 18:18:06;;;;;;;5.25;1.73;;;;;;;6.52;74.80;101398.22;8270829;28;20041;-59
2023/03/27 18:22:07;;;;;;;5.47;1.95;;;;;;;6.51;75.43;101404.53;8282098;28;20168;-59
2023/03/27 18:26:07;;;;;;;5.85;1.50;;;;;;;6.46;75.65;101408.47;8275695;28;20041;-58
2023/03/27 18:30:12;;;;;;;5.50;1.20;;;;;;;6.32;76.05;101409.31;8304646;28;20038;-59
2023/03/27 18:34:13;;;;;;;;;;;;;;;6.29;76.61;101413.97;8282457;28;20603;-58
2023/03/27 18:38:14;;;;;;;10.90;2.08;;;;;;;6.18;77.53;101414.63;8276823;28;20245;-59
2023/03/27 18:42:14;;;;;;;6.88;1.85;;;;;;;5.98;79.27;101423.00;8283548;28;20076;-57
2023/03/27 18:46:15;;;;;;;10.20;3.35;;;;;;;5.67;81.56;101429.22;8281512;28;20064;-59
2023/03/27 18:50:16;;;;;;;13.90;4.13;;;;;;;5.33;83.32;101429.38;8282534;28;20384;-58
2023/03/27 18:54:16;;;;;;;4.32;2.28;;;;;;;5.27;84.31;101426.16;8292704;28;20210;-58
2023/03/27 18:58:18;;;;;;;4.03;1.70;;;;;;;5.19;85.08;101439.16;8281729;28;20653;-58
2023/03/27 19:02:19;;;;;;;10.20;3.97;;;;;;;5.08;84.58;101438.84;8267958;28;20505;-59
2023/03/27 19:06:20;;;;;;;11.27;2.55;;;;;;;5.08;84.63;101446.91;8283432;28;20056;-59
2023/03/27 19:10:20;;;;;;;7.70;3.42;;;;;;;5.29;84.73;101446.59;8309311;28;20057;-60
2023/03/27 19:14:41;;;;;;;4.15;2.00;;;;;;;5.38;83.92;101445.22;8255805;28;20047;-59
2023/03/27 19:19:01;;;;;;;9.57;4.72;;;;;;;5.37;83.39;101449.72;8273755;28;20108;-59
2023/03/27 19:23:11;;;;;;;11.43;3.15;;;;;;;5.40;83.48;101459.41;8269441;28;20104;-59
2023/03/27 19:27:15;;;;;;;7.45;2.10;;;;;;;5.08;85.37;101460.28;8279519;28;20034;-59
2023/03/27 19:31:16;;;;;;;13.55;2.83;;;;;;;4.66;86.46;101465.28;8274528;28;20704;-58
2023/03/27 19:35:18;;;;;;;12.68;3.50;;;;;;;4.54;87.97;101469.44;8254318;28;20473;-60
2023/03/27 19:39:20;;;;;;;6.20;2.60;;;;;;;4.52;88.27;101467.81;8264935;28;20049;-60
2023/03/27 19:43:21;;;;;;;12.25;3.72;;;;;;;4.63;88.82;101468.13;8253225;28;20093;-60
2023/03/27 19:47:21;;;;;;;10.82;2.90;;;;;;;4.70;88.83;101472.19;8280809;28;20072;-60
2023/03/27 19:51:22;;;;;;;7.28;2.38;;;;;;;4.52;88.25;101474.03;8278372;28;20117;-60
2023/03/27 19:55:25;;;;;;;7.95;2.08;;;;;;;4.56;88.77;101477.41;8266305;28;20074;-60
2023/03/27 19:59:25;;;;;;;5.90;2.20;;;;;;;4.55;88.98;101478.34;8278106;28;20049;-59
2023/03/27 20:03:27;;;;;;;11.02;2.35;;;;;;;4.27;90.57;101478.03;8289323;28;20582;-58